createdAt,value
2022-12-01T00:03:33.695Z,52.3
2022-12-01T00:08:33.598Z,52.4
2022-12-01T00:13:36.380Z,52.4
2022-12-01T00:18:36.885Z,52.5
2022-12-01T00:23:36.961Z,52.4
2022-12-01T00:28:37.004Z,52.4
2022-12-01T00:33:37.539Z,52.2
2022-12-01T00:38:37.774Z,52.4
2022-12-01T00:43:40.451Z,52.4
2022-12-01T00:48:42.838Z,52.6
2022-12-01T00:53:45.114Z,52.6
2022-12-01T00:58:47.694Z,52.5
2022-12-01T01:03:49.945Z,51.9
2022-12-01T01:08:52.584Z,52.1
2022-12-01T01:13:55.030Z,52.2
2022-12-01T01:18:54.816Z,52.1
2022-12-01T01:23:54.696Z,51.9
2022-12-01T01:28:57.514Z,52.3
2022-12-01T01:33:57.423Z,52.3
2022-12-01T01:38:57.553Z,51.9
2022-12-01T01:43:57.883Z,51.9
2022-12-01T01:48:57.990Z,51.9
2022-12-01T01:54:00.790Z,52.1
2022-12-01T01:59:04.889Z,52.1
2022-12-01T02:04:06.866Z,52
2022-12-01T02:09:06.405Z,52
2022-12-01T02:14:06.426Z,52
2022-12-01T02:19:09.513Z,52.2
2022-12-01T02:24:09.141Z,52.1
2022-12-01T02:29:09.449Z,52
2022-12-01T02:34:12.366Z,52.3
2022-12-01T02:39:11.783Z,52
2022-12-01T02:44:12.034Z,52.3
2022-12-01T02:49:12.056Z,52.2
2022-12-01T02:54:12.180Z,52.1
2022-12-01T02:59:14.862Z,52.1
2022-12-01T03:04:14.536Z,52.1
2022-12-01T03:09:17.286Z,52.1
2022-12-01T03:14:19.491Z,51.9
2022-12-01T03:19:21.827Z,51.9
2022-12-01T03:24:21.428Z,51.8
2022-12-01T03:29:21.575Z,51.9
2022-12-01T03:34:21.902Z,51.8
2022-12-01T03:39:22.129Z,51.8
2022-12-01T03:44:22.253Z,51.9
2022-12-01T03:49:22.289Z,52.1
2022-12-01T03:54:25.254Z,51.9
2022-12-01T03:59:24.703Z,51.9
2022-12-01T04:04:27.580Z,51.9
2022-12-01T04:09:27.046Z,52
2022-12-01T04:14:27.207Z,51.8
2022-12-01T04:19:29.827Z,51.8
2022-12-01T04:24:32.217Z,52.1
2022-12-01T04:29:31.707Z,51.9
2022-12-01T04:34:31.981Z,52.1
2022-12-01T04:39:34.957Z,51.8
2022-12-01T04:44:35.376Z,52
2022-12-01T04:49:34.815Z,51.9
2022-12-01T04:54:35.105Z,52.2
2022-12-01T04:59:35.105Z,52.1
2022-12-01T05:04:35.458Z,51.9
2022-12-01T05:09:35.438Z,52
2022-12-01T05:14:38.275Z,52
2022-12-01T05:19:37.569Z,52.2
2022-12-01T05:24:37.570Z,52
2022-12-01T05:29:37.435Z,52.2
2022-12-01T05:34:41.910Z,52.1
2022-12-01T05:39:41.314Z,51.9
2022-12-01T05:44:41.434Z,52.1
2022-12-01T05:49:44.182Z,52.2
2022-12-01T05:54:43.742Z,52.3
2022-12-01T05:59:46.679Z,52.2
2022-12-01T06:04:46.283Z,51.9
2022-12-01T06:09:46.755Z,52.1
2022-12-01T06:14:46.284Z,51.9
2022-12-01T06:19:46.532Z,51.9
2022-12-01T06:24:46.556Z,52.1
2022-12-01T06:29:46.560Z,51.8
2022-12-01T06:34:46.718Z,51.3
2022-12-01T06:39:47.056Z,51.5
2022-12-01T06:44:46.842Z,51.2
2022-12-01T06:49:47.705Z,51
2022-12-01T06:54:47.062Z,51.5
2022-12-01T06:59:50.149Z,51.2
2022-12-01T07:04:52.167Z,51.3
2022-12-01T07:09:52.777Z,51.3
2022-12-01T07:14:52.606Z,51.4
2022-12-01T07:19:52.661Z,51.4
2022-12-01T07:24:53.024Z,51.3
2022-12-01T07:29:55.907Z,51.5
2022-12-01T07:34:55.217Z,51.8
2022-12-01T07:39:55.068Z,51.2
2022-12-01T07:44:55.034Z,51
2022-12-01T07:49:54.219Z,51.3
2022-12-01T07:54:54.247Z,51.3
2022-12-01T07:59:54.372Z,51
2022-12-01T08:04:57.298Z,50.8
2022-12-01T08:09:56.965Z,50.7
2022-12-01T08:14:57.104Z,50.4
2022-12-01T08:19:57.128Z,50.5
2022-12-01T08:24:59.944Z,50.4
2022-12-01T08:30:01.620Z,50.4
2022-12-01T08:35:01.440Z,50.8
2022-12-01T08:40:01.388Z,50.9
2022-12-01T08:45:01.813Z,50.6
2022-12-01T08:50:02.115Z,50.8
2022-12-01T08:55:03.275Z,50.6
2022-12-01T09:00:04.374Z,50.9
2022-12-01T09:05:04.503Z,50.4
2022-12-01T09:10:04.581Z,50.6
2022-12-01T09:15:07.559Z,50.8
2022-12-01T09:20:07.191Z,50.5
2022-12-01T09:25:10.134Z,50.6
2022-12-01T09:30:09.561Z,50.6
2022-12-01T09:35:09.773Z,50.6
2022-12-01T09:40:12.602Z,50.3
2022-12-01T09:45:12.793Z,49.7
2022-12-01T09:50:13.004Z,49.5
2022-12-01T09:55:16.103Z,49.3
2022-12-01T10:00:15.907Z,48.8
2022-12-01T10:05:16.126Z,48.4
2022-12-01T10:10:19.217Z,48.1
2022-12-01T10:15:21.634Z,47.9
2022-12-01T10:20:24.158Z,47.7
2022-12-01T10:25:23.810Z,47.8
2022-12-01T10:30:26.548Z,47.5
2022-12-01T10:35:26.279Z,47.4
2022-12-01T10:40:26.307Z,47.4
2022-12-01T10:45:26.651Z,47.3
2022-12-01T10:50:26.758Z,47.3
2022-12-01T10:55:27.041Z,47.3
2022-12-01T11:00:57.795Z,47.4
2022-12-01T11:05:27.317Z,47.2
2022-12-01T11:10:27.663Z,47.2
2022-12-01T11:15:30.485Z,47.2
2022-12-01T11:20:30.202Z,47.3
2022-12-01T11:25:32.969Z,47.3
2022-12-01T11:30:32.468Z,47.6
2022-12-01T11:35:32.514Z,47.5
2022-12-01T11:40:32.647Z,47.6
2022-12-01T11:45:32.806Z,47.6
2022-12-01T11:50:32.790Z,47.6
2022-12-01T11:55:32.808Z,47.4
2022-12-01T12:00:32.829Z,47.3
2022-12-01T12:05:35.760Z,47.2
2022-12-01T12:10:35.649Z,47
2022-12-01T12:15:35.802Z,47.1
2022-12-01T12:20:38.583Z,47.3
2022-12-01T12:25:41.005Z,47.4
2022-12-01T12:30:40.652Z,47.7
2022-12-01T12:35:40.514Z,47.4
2022-12-01T12:40:43.401Z,47.6
2022-12-01T12:45:45.835Z,47.7
2022-12-01T12:50:45.347Z,48
2022-12-01T12:55:45.584Z,48.9
2022-12-01T13:00:45.845Z,50
2022-12-01T13:05:46.096Z,50.7
2022-12-01T13:10:49.122Z,51.3
2022-12-01T13:15:49.025Z,52.1
2022-12-01T13:20:48.937Z,52
2022-12-01T13:25:49.080Z,52.2
2022-12-01T13:30:49.131Z,52.3
2022-12-01T13:36:01.396Z,52.8
2022-12-01T13:40:50.060Z,53
2022-12-01T13:45:50.199Z,52.7
2022-12-01T13:50:50.615Z,52.7
2022-12-01T13:55:50.672Z,53
2022-12-01T14:00:50.779Z,53.2
2022-12-01T14:05:50.939Z,53.4
2022-12-01T14:10:51.250Z,53.6
2022-12-01T14:15:51.363Z,54.1
2022-12-01T14:20:51.088Z,54.5
2022-12-01T14:25:51.409Z,54.9
2022-12-01T14:30:54.323Z,54.8
2022-12-01T14:35:52.955Z,54.9
2022-12-01T14:40:53.345Z,54.8
2022-12-01T14:45:53.605Z,55.3
2022-12-01T14:50:56.723Z,55.1
2022-12-01T14:55:56.006Z,54.9
2022-12-01T15:00:56.377Z,55.3
2022-12-01T15:05:56.475Z,55.5
2022-12-01T15:10:56.710Z,55.3
2022-12-01T15:15:57.779Z,55.1
2022-12-01T15:20:57.609Z,55.2
2022-12-01T15:30:57.994Z,55.2
2022-12-01T15:36:01.213Z,55.2
2022-12-01T15:41:28.290Z,55.2
2022-12-01T15:46:03.387Z,54.9
2022-12-01T15:51:03.495Z,54.8
2022-12-01T15:56:04.661Z,54.9
2022-12-01T16:01:04.650Z,54.3
2022-12-01T16:06:10.154Z,54.5
2022-12-01T16:11:09.396Z,54.4
2022-12-01T16:16:09.319Z,54.2
2022-12-01T16:21:12.440Z,53.4
2022-12-01T16:26:14.729Z,54
2022-12-01T16:31:15.403Z,54.5
2022-12-01T16:36:17.209Z,54.4
2022-12-01T16:39:45.134Z,53.8
2022-12-01T16:44:46.542Z,47.8
2022-12-01T16:49:47.294Z,44.1
2022-12-01T16:54:48.107Z,41.6
2022-12-01T16:59:51.012Z,41.3
2022-12-01T17:04:53.832Z,41.2
2022-12-01T17:09:53.640Z,40.3
2022-12-01T17:14:54.101Z,40.1
2022-12-01T17:19:54.527Z,39.5
2022-12-01T17:24:57.524Z,39.3
2022-12-01T17:29:59.821Z,38.8
2022-12-01T17:34:59.493Z,38.3
2022-12-01T17:40:02.328Z,38
2022-12-01T17:45:04.716Z,37.9
2022-12-01T17:50:07.129Z,37.6
2022-12-01T17:55:06.443Z,38.1
2022-12-01T18:00:06.447Z,37.4
2022-12-01T18:05:09.714Z,37.4
2022-12-01T18:10:12.047Z,37
2022-12-01T18:15:13.853Z,38.1
2022-12-01T18:20:13.121Z,37.4
2022-12-01T18:25:13.665Z,36.8
2022-12-01T18:30:16.564Z,36.8
2022-12-01T18:35:15.971Z,37.5
2022-12-01T18:40:18.470Z,37.8
2022-12-01T18:45:20.967Z,37.1
2022-12-01T18:50:20.894Z,38
2022-12-01T18:55:22.893Z,38.7
2022-12-01T19:00:24.776Z,39.3
2022-12-01T19:05:23.707Z,39.4
2022-12-01T19:10:24.113Z,37.8
2022-12-01T19:15:24.329Z,37.8
2022-12-01T19:20:26.762Z,38.8
2022-12-01T19:25:26.162Z,38.4
2022-12-01T19:30:28.668Z,43.2
2022-12-01T19:35:30.301Z,44.6
2022-12-01T19:40:29.286Z,45.6
2022-12-01T19:45:29.086Z,46.8
2022-12-01T19:50:29.004Z,47.4
2022-12-01T19:55:28.484Z,47.9
2022-12-01T20:00:28.360Z,48.5
2022-12-01T20:05:30.959Z,49
2022-12-01T20:10:30.237Z,49.3
2022-12-01T20:15:30.160Z,49.5
2022-12-01T20:20:30.131Z,49.8
2022-12-01T20:25:32.817Z,50
2022-12-01T20:30:32.265Z,50.2
2022-12-01T20:35:32.216Z,50.2
2022-12-01T20:40:32.038Z,50.4
2022-12-01T20:45:31.891Z,50.5
2022-12-01T20:50:34.450Z,50.5
2022-12-01T20:55:33.828Z,50.7
2022-12-01T21:00:33.649Z,50.7
2022-12-01T21:05:36.544Z,51.1
2022-12-01T21:10:35.885Z,51.1
2022-12-01T21:15:38.606Z,51.2
2022-12-01T21:20:38.344Z,51.5
2022-12-01T21:25:38.386Z,51.6
2022-12-01T21:30:38.466Z,51.7
2022-12-01T21:35:38.560Z,51.9
2022-12-01T21:40:38.450Z,52
2022-12-01T21:45:41.205Z,52.3
2022-12-01T21:50:40.864Z,52.4
2022-12-01T21:55:40.788Z,52.4
2022-12-01T22:00:40.657Z,52.5
2022-12-01T22:05:40.650Z,52.6
2022-12-01T22:10:40.641Z,52.7
2022-12-01T22:15:43.749Z,52.8
2022-12-01T22:20:45.986Z,52.8
2022-12-01T22:25:45.359Z,52.9
2022-12-01T22:30:45.218Z,53
2022-12-01T22:35:47.993Z,53.1
2022-12-01T22:40:50.340Z,53.1
2022-12-01T22:45:49.999Z,53.1
2022-12-01T22:50:51.872Z,53.1
2022-12-01T22:55:52.550Z,53.2
2022-12-01T23:00:52.123Z,53.3
2022-12-01T23:05:51.919Z,53.2
2022-12-01T23:10:52.049Z,53.2
2022-12-01T23:15:54.971Z,53.2
2022-12-01T23:20:57.403Z,53.3
2022-12-01T23:25:59.852Z,53.2
2022-12-01T23:30:59.239Z,53.2
2022-12-01T23:35:59.067Z,53.3
2022-12-01T23:40:58.075Z,53.3
2022-12-01T23:46:01.119Z,53.3
2022-12-01T23:51:00.559Z,53.4
2022-12-01T23:56:00.612Z,53.3
